sensor_id;sensor_type;location;lat;lon;timestamp;temperature;humidity
18126;DHT22;53956;52.442;13.284;2022-11-20T00:00:16;4.50;99.90
18126;DHT22;53956;52.442;13.284;2022-11-20T00:02:43;4.50;99.90
18126;DHT22;53956;52.442;13.284;2022-11-20T00:05:11;4.40;99.90
18126;DHT22;53956;52.442;13.284;2022-11-20T00:07:38;4.50;99.90
18126;DHT22;53956;52.442;13.284;2022-11-20T00:10:05;4.40;99.90
18126;DHT22;53956;52.442;13.284;2022-11-20T00:12:32;4.30;99.90
18126;DHT22;53956;52.442;13.284;2022-11-20T00:14:58;4.40;99.90
18126;DHT22;53956;52.442;13.284;2022-11-20T00:17:25;4.40;99.90
18126;DHT22;53956;52.442;13.284;2022-11-20T00:19:52;4.60;99.90
18126;DHT22;53956;52.442;13.284;2022-11-20T00:22:20;4.50;99.90
18126;DHT22;53956;52.442;13.284;2022-11-20T00:24:47;4.50;99.90
18126;DHT22;53956;52.442;13.284;2022-11-20T00:27:13;4.40;99.90
18126;DHT22;53956;52.442;13.284;2022-11-20T00:29:40;4.30;99.90
18126;DHT22;53956;52.442;13.284;2022-11-20T00:32:07;4.40;99.90
18126;DHT22;53956;52.442;13.284;2022-11-20T00:34:33;4.30;99.90
18126;DHT22;53956;52.442;13.284;2022-11-20T00:37:00;4.40;99.90
18126;DHT22;53956;52.442;13.284;2022-11-20T00:39:28;4.40;99.90
18126;DHT22;53956;52.442;13.284;2022-11-20T00:41:54;4.30;99.90
18126;DHT22;53956;52.442;13.284;2022-11-20T00:44:21;4.40;99.90
18126;DHT22;53956;52.442;13.284;2022-11-20T00:46:48;4.40;99.90
18126;DHT22;53956;52.442;13.284;2022-11-20T00:49:14;4.40;99.90
18126;DHT22;53956;52.442;13.284;2022-11-20T00:51:41;4.40;99.90
18126;DHT22;53956;52.442;13.284;2022-11-20T00:54:08;4.50;99.90
18126;DHT22;53956;52.442;13.284;2022-11-20T00:56:36;4.60;99.90
18126;DHT22;53956;52.442;13.284;2022-11-20T00:59:02;4.80;99.90
18126;DHT22;53956;52.442;13.284;2022-11-20T01:01:29;4.50;99.90
18126;DHT22;53956;52.442;13.284;2022-11-20T01:03:58;4.60;99.90
18126;DHT22;53956;52.442;13.284;2022-11-20T01:06:26;4.60;99.90
18126;DHT22;53956;52.442;13.284;2022-11-20T01:08:55;4.40;99.90
18126;DHT22;53956;52.442;13.284;2022-11-20T01:11:24;4.50;99.90
18126;DHT22;53956;52.442;13.284;2022-11-20T01:13:53;4.50;99.90
18126;DHT22;53956;52.442;13.284;2022-11-20T01:16:21;4.30;99.90
18126;DHT22;53956;52.442;13.284;2022-11-20T01:18:50;4.40;99.90
18126;DHT22;53956;52.442;13.284;2022-11-20T01:21:19;4.30;99.90
18126;DHT22;53956;52.442;13.284;2022-11-20T01:23:48;4.40;99.90
18126;DHT22;53956;52.442;13.284;2022-11-20T01:26:17;4.20;99.90
18126;DHT22;53956;52.442;13.284;2022-11-20T01:28:44;4.40;99.90
18126;DHT22;53956;52.442;13.284;2022-11-20T01:31:14;4.30;99.90
18126;DHT22;53956;52.442;13.284;2022-11-20T01:33:42;4.20;99.90
18126;DHT22;53956;52.442;13.284;2022-11-20T01:36:09;4.10;99.90
18126;DHT22;53956;52.442;13.284;2022-11-20T01:38:36;4.30;99.90
18126;DHT22;53956;52.442;13.284;2022-11-20T01:41:04;4.40;99.90
18126;DHT22;53956;52.442;13.284;2022-11-20T01:43:31;4.30;99.90
18126;DHT22;53956;52.442;13.284;2022-11-20T01:48:47;4.30;99.90
18126;DHT22;53956;52.442;13.284;2022-11-20T01:51:21;4.30;99.90
18126;DHT22;53956;52.442;13.284;2022-11-20T01:53:50;4.20;99.90
18126;DHT22;53956;52.442;13.284;2022-11-20T01:56:18;4.50;99.90
18126;DHT22;53956;52.442;13.284;2022-11-20T01:58:48;4.30;99.90
18126;DHT22;53956;52.442;13.284;2022-11-20T02:01:15;4.30;99.90
18126;DHT22;53956;52.442;13.284;2022-11-20T02:03:44;4.40;99.90
18126;DHT22;53956;52.442;13.284;2022-11-20T02:06:14;4.30;99.90
18126;DHT22;53956;52.442;13.284;2022-11-20T02:08:42;4.40;99.90
18126;DHT22;53956;52.442;13.284;2022-11-20T02:11:09;4.10;99.90
18126;DHT22;53956;52.442;13.284;2022-11-20T02:13:38;4.20;99.90
18126;DHT22;53956;52.442;13.284;2022-11-20T02:16:20;4.40;99.90
18126;DHT22;53956;52.442;13.284;2022-11-20T02:18:49;4.40;99.90
18126;DHT22;53956;52.442;13.284;2022-11-20T02:21:27;4.40;99.90
18126;DHT22;53956;52.442;13.284;2022-11-20T02:24:04;4.40;99.90
18126;DHT22;53956;52.442;13.284;2022-11-20T02:26:35;4.20;99.90
18126;DHT22;53956;52.442;13.284;2022-11-20T02:29:03;4.20;99.90
18126;DHT22;53956;52.442;13.284;2022-11-20T02:31:36;4.30;99.90
18126;DHT22;53956;52.442;13.284;2022-11-20T02:34:03;4.20;99.90
18126;DHT22;53956;52.442;13.284;2022-11-20T02:36:32;4.20;99.90
18126;DHT22;53956;52.442;13.284;2022-11-20T02:38:59;4.20;99.90
18126;DHT22;53956;52.442;13.284;2022-11-20T02:41:32;4.30;99.90
18126;DHT22;53956;52.442;13.284;2022-11-20T02:43:59;4.30;99.90
18126;DHT22;53956;52.442;13.284;2022-11-20T02:46:26;4.30;99.90
18126;DHT22;53956;52.442;13.284;2022-11-20T02:48:53;4.20;99.90
18126;DHT22;53956;52.442;13.284;2022-11-20T02:51:20;4.20;99.90
18126;DHT22;53956;52.442;13.284;2022-11-20T02:53:46;4.30;99.90
18126;DHT22;53956;52.442;13.284;2022-11-20T02:56:13;4.30;99.90
18126;DHT22;53956;52.442;13.284;2022-11-20T02:58:41;4.30;99.90
18126;DHT22;53956;52.442;13.284;2022-11-20T03:01:08;4.00;99.90
18126;DHT22;53956;52.442;13.284;2022-11-20T03:03:35;4.20;99.90
18126;DHT22;53956;52.442;13.284;2022-11-20T03:06:01;4.20;99.90
18126;DHT22;53956;52.442;13.284;2022-11-20T03:08:28;4.10;99.90
18126;DHT22;53956;52.442;13.284;2022-11-20T03:10:55;4.40;99.90
18126;DHT22;53956;52.442;13.284;2022-11-20T03:13:21;4.10;99.90
18126;DHT22;53956;52.442;13.284;2022-11-20T03:15:49;4.10;99.90
18126;DHT22;53956;52.442;13.284;2022-11-20T03:18:16;3.90;99.90
18126;DHT22;53956;52.442;13.284;2022-11-20T03:20:43;4.00;99.90
18126;DHT22;53956;52.442;13.284;2022-11-20T03:23:09;3.90;99.90
18126;DHT22;53956;52.442;13.284;2022-11-20T03:25:36;4.10;99.90
18126;DHT22;53956;52.442;13.284;2022-11-20T03:28:02;3.90;99.90
18126;DHT22;53956;52.442;13.284;2022-11-20T03:30:30;4.10;99.90
18126;DHT22;53956;52.442;13.284;2022-11-20T03:32:57;3.90;99.90
18126;DHT22;53956;52.442;13.284;2022-11-20T03:35:24;3.80;99.90
18126;DHT22;53956;52.442;13.284;2022-11-20T03:37:51;3.90;99.90
18126;DHT22;53956;52.442;13.284;2022-11-20T03:40:17;4.10;99.90
18126;DHT22;53956;52.442;13.284;2022-11-20T03:42:44;4.10;99.90
18126;DHT22;53956;52.442;13.284;2022-11-20T03:45:14;3.90;99.90
18126;DHT22;53956;52.442;13.284;2022-11-20T03:47:41;4.00;99.90
18126;DHT22;53956;52.442;13.284;2022-11-20T03:50:11;3.90;99.90
18126;DHT22;53956;52.442;13.284;2022-11-20T03:52:39;4.00;99.90
18126;DHT22;53956;52.442;13.284;2022-11-20T03:55:06;4.00;99.90
18126;DHT22;53956;52.442;13.284;2022-11-20T03:57:33;3.90;99.90
18126;DHT22;53956;52.442;13.284;2022-11-20T03:59:59;3.70;99.90
18126;DHT22;53956;52.442;13.284;2022-11-20T04:02:26;4.10;99.90
18126;DHT22;53956;52.442;13.284;2022-11-20T04:04:53;4.00;99.90
18126;DHT22;53956;52.442;13.284;2022-11-20T04:07:21;3.90;99.90
18126;DHT22;53956;52.442;13.284;2022-11-20T04:09:47;4.10;99.90
18126;DHT22;53956;52.442;13.284;2022-11-20T04:12:14;4.00;99.90
18126;DHT22;53956;52.442;13.284;2022-11-20T04:14:41;4.00;99.90
18126;DHT22;53956;52.442;13.284;2022-11-20T04:17:07;3.80;99.90
18126;DHT22;53956;52.442;13.284;2022-11-20T04:19:34;3.90;99.90
18126;DHT22;53956;52.442;13.284;2022-11-20T04:22:01;3.90;99.90
18126;DHT22;53956;52.442;13.284;2022-11-20T04:24:29;4.00;99.90
18126;DHT22;53956;52.442;13.284;2022-11-20T04:26:55;4.20;99.90
18126;DHT22;53956;52.442;13.284;2022-11-20T04:29:22;4.10;99.90
18126;DHT22;53956;52.442;13.284;2022-11-20T04:31:49;4.10;99.90
18126;DHT22;53956;52.442;13.284;2022-11-20T04:34:16;4.10;99.90
18126;DHT22;53956;52.442;13.284;2022-11-20T04:36:42;4.20;99.90
18126;DHT22;53956;52.442;13.284;2022-11-20T04:39:13;4.10;99.90
18126;DHT22;53956;52.442;13.284;2022-11-20T04:41:42;4.20;99.90
18126;DHT22;53956;52.442;13.284;2022-11-20T04:44:09;4.10;99.90
18126;DHT22;53956;52.442;13.284;2022-11-20T04:46:37;4.30;99.90
18126;DHT22;53956;52.442;13.284;2022-11-20T04:49:04;4.00;99.90
18126;DHT22;53956;52.442;13.284;2022-11-20T04:51:31;4.20;99.90
18126;DHT22;53956;52.442;13.284;2022-11-20T04:53:58;4.10;99.90
18126;DHT22;53956;52.442;13.284;2022-11-20T04:56:24;4.10;99.90
18126;DHT22;53956;52.442;13.284;2022-11-20T04:58:52;4.20;99.90
18126;DHT22;53956;52.442;13.284;2022-11-20T05:01:21;4.30;99.90
18126;DHT22;53956;52.442;13.284;2022-11-20T05:03:48;4.10;99.90
18126;DHT22;53956;52.442;13.284;2022-11-20T05:06:16;4.10;99.90
18126;DHT22;53956;52.442;13.284;2022-11-20T05:08:43;4.00;99.90
18126;DHT22;53956;52.442;13.284;2022-11-20T05:11:12;4.10;99.90
18126;DHT22;53956;52.442;13.284;2022-11-20T05:13:39;4.10;99.90
18126;DHT22;53956;52.442;13.284;2022-11-20T05:16:09;4.00;99.90
18126;DHT22;53956;52.442;13.284;2022-11-20T05:18:38;4.10;99.90
18126;DHT22;53956;52.442;13.284;2022-11-20T05:21:05;4.00;99.90
18126;DHT22;53956;52.442;13.284;2022-11-20T05:23:33;4.10;99.90
18126;DHT22;53956;52.442;13.284;2022-11-20T05:26:00;4.20;99.90
18126;DHT22;53956;52.442;13.284;2022-11-20T05:28:28;4.20;99.90
18126;DHT22;53956;52.442;13.284;2022-11-20T05:30:55;3.90;99.90
18126;DHT22;53956;52.442;13.284;2022-11-20T05:33:23;4.20;99.90
18126;DHT22;53956;52.442;13.284;2022-11-20T05:35:50;4.20;99.90
18126;DHT22;53956;52.442;13.284;2022-11-20T05:38:16;4.20;99.90
18126;DHT22;53956;52.442;13.284;2022-11-20T05:40:43;4.20;99.90
18126;DHT22;53956;52.442;13.284;2022-11-20T05:43:09;4.10;99.90
18126;DHT22;53956;52.442;13.284;2022-11-20T05:45:36;4.00;99.90
18126;DHT22;53956;52.442;13.284;2022-11-20T05:48:03;4.30;99.90
18126;DHT22;53956;52.442;13.284;2022-11-20T05:50:31;4.20;99.90
18126;DHT22;53956;52.442;13.284;2022-11-20T05:52:58;4.30;99.90
18126;DHT22;53956;52.442;13.284;2022-11-20T05:55:25;4.30;99.90
18126;DHT22;53956;52.442;13.284;2022-11-20T05:57:52;4.40;99.90
18126;DHT22;53956;52.442;13.284;2022-11-20T06:00:20;4.30;99.90
18126;DHT22;53956;52.442;13.284;2022-11-20T06:02:46;4.30;99.90
18126;DHT22;53956;52.442;13.284;2022-11-20T06:05:13;4.20;99.90
18126;DHT22;53956;52.442;13.284;2022-11-20T06:07:41;4.10;99.90
18126;DHT22;53956;52.442;13.284;2022-11-20T06:10:08;4.30;99.90
18126;DHT22;53956;52.442;13.284;2022-11-20T06:12:35;4.20;99.90
18126;DHT22;53956;52.442;13.284;2022-11-20T06:15:02;4.20;99.90
18126;DHT22;53956;52.442;13.284;2022-11-20T06:17:29;4.20;99.90
18126;DHT22;53956;52.442;13.284;2022-11-20T06:19:55;4.10;99.90
18126;DHT22;53956;52.442;13.284;2022-11-20T06:22:22;4.10;99.90
18126;DHT22;53956;52.442;13.284;2022-11-20T06:24:50;4.30;99.90
18126;DHT22;53956;52.442;13.284;2022-11-20T06:27:17;4.10;99.90
18126;DHT22;53956;52.442;13.284;2022-11-20T06:29:43;4.10;99.90
18126;DHT22;53956;52.442;13.284;2022-11-20T06:32:10;4.20;99.90
18126;DHT22;53956;52.442;13.284;2022-11-20T06:34:36;4.10;99.90
18126;DHT22;53956;52.442;13.284;2022-11-20T06:37:03;4.10;99.90
18126;DHT22;53956;52.442;13.284;2022-11-20T06:39:30;4.20;99.90
18126;DHT22;53956;52.442;13.284;2022-11-20T06:41:58;4.20;99.90
18126;DHT22;53956;52.442;13.284;2022-11-20T06:44:25;4.30;99.90
18126;DHT22;53956;52.442;13.284;2022-11-20T06:46:51;4.10;99.90
18126;DHT22;53956;52.442;13.284;2022-11-20T06:49:18;4.20;99.90
18126;DHT22;53956;52.442;13.284;2022-11-20T06:51:45;4.30;99.90
18126;DHT22;53956;52.442;13.284;2022-11-20T06:54:11;4.20;99.90
18126;DHT22;53956;52.442;13.284;2022-11-20T06:56:38;4.30;99.90
18126;DHT22;53956;52.442;13.284;2022-11-20T06:59:06;4.20;99.90
18126;DHT22;53956;52.442;13.284;2022-11-20T07:01:33;4.30;99.90
18126;DHT22;53956;52.442;13.284;2022-11-20T07:04:00;4.30;99.90
18126;DHT22;53956;52.442;13.284;2022-11-20T07:06:28;4.40;99.90
18126;DHT22;53956;52.442;13.284;2022-11-20T07:08:54;4.30;99.90
18126;DHT22;53956;52.442;13.284;2022-11-20T07:11:21;4.30;99.90
18126;DHT22;53956;52.442;13.284;2022-11-20T07:13:48;4.20;99.90
18126;DHT22;53956;52.442;13.284;2022-11-20T07:16:16;4.30;99.90
18126;DHT22;53956;52.442;13.284;2022-11-20T07:18:43;4.20;99.90
18126;DHT22;53956;52.442;13.284;2022-11-20T07:21:10;4.10;99.90
18126;DHT22;53956;52.442;13.284;2022-11-20T07:23:37;4.00;99.90
18126;DHT22;53956;52.442;13.284;2022-11-20T07:26:04;4.00;99.90
18126;DHT22;53956;52.442;13.284;2022-11-20T07:28:32;3.90;99.90
18126;DHT22;53956;52.442;13.284;2022-11-20T07:30:58;3.90;99.90
18126;DHT22;53956;52.442;13.284;2022-11-20T07:33:26;4.00;99.90
18126;DHT22;53956;52.442;13.284;2022-11-20T07:35:53;4.00;99.90
18126;DHT22;53956;52.442;13.284;2022-11-20T07:38:19;4.10;99.90
18126;DHT22;53956;52.442;13.284;2022-11-20T07:40:46;3.90;99.90
18126;DHT22;53956;52.442;13.284;2022-11-20T07:43:13;3.90;99.90
18126;DHT22;53956;52.442;13.284;2022-11-20T07:45:41;3.90;99.90
18126;DHT22;53956;52.442;13.284;2022-11-20T07:48:08;4.00;99.90
18126;DHT22;53956;52.442;13.284;2022-11-20T07:50:36;3.90;99.90
18126;DHT22;53956;52.442;13.284;2022-11-20T07:53:03;4.00;99.90
18126;DHT22;53956;52.442;13.284;2022-11-20T07:55:31;4.20;99.90
18126;DHT22;53956;52.442;13.284;2022-11-20T07:57:58;4.10;99.90
18126;DHT22;53956;52.442;13.284;2022-11-20T08:00:25;4.00;99.90
18126;DHT22;53956;52.442;13.284;2022-11-20T08:02:52;4.00;99.90
18126;DHT22;53956;52.442;13.284;2022-11-20T08:05:19;4.20;99.90
18126;DHT22;53956;52.442;13.284;2022-11-20T08:07:48;4.40;99.90
18126;DHT22;53956;52.442;13.284;2022-11-20T08:10:15;4.30;99.90
18126;DHT22;53956;52.442;13.284;2022-11-20T08:12:46;4.30;99.90
18126;DHT22;53956;52.442;13.284;2022-11-20T08:15:31;4.40;99.90
18126;DHT22;53956;52.442;13.284;2022-11-20T08:18:02;4.20;99.90
18126;DHT22;53956;52.442;13.284;2022-11-20T08:20:29;4.10;99.90
18126;DHT22;53956;52.442;13.284;2022-11-20T08:23:02;4.40;99.90
18126;DHT22;53956;52.442;13.284;2022-11-20T08:25:29;4.30;99.90
18126;DHT22;53956;52.442;13.284;2022-11-20T08:27:59;4.40;99.90
18126;DHT22;53956;52.442;13.284;2022-11-20T08:30:27;4.40;99.90
18126;DHT22;53956;52.442;13.284;2022-11-20T08:32:54;4.30;99.90
18126;DHT22;53956;52.442;13.284;2022-11-20T08:35:21;4.30;99.90
18126;DHT22;53956;52.442;13.284;2022-11-20T08:37:48;4.50;99.90
18126;DHT22;53956;52.442;13.284;2022-11-20T08:40:16;4.50;99.90
18126;DHT22;53956;52.442;13.284;2022-11-20T08:42:47;4.40;99.90
18126;DHT22;53956;52.442;13.284;2022-11-20T08:45:14;4.30;99.90
18126;DHT22;53956;52.442;13.284;2022-11-20T08:47:41;4.20;99.90
18126;DHT22;53956;52.442;13.284;2022-11-20T08:50:09;4.30;99.80
18126;DHT22;53956;52.442;13.284;2022-11-20T08:52:35;4.20;99.90
18126;DHT22;53956;52.442;13.284;2022-11-20T08:55:03;4.30;99.90
18126;DHT22;53956;52.442;13.284;2022-11-20T08:57:32;4.30;99.90
18126;DHT22;53956;52.442;13.284;2022-11-20T08:59:59;4.30;99.90
18126;DHT22;53956;52.442;13.284;2022-11-20T09:02:26;4.40;99.90
18126;DHT22;53956;52.442;13.284;2022-11-20T09:04:52;4.30;99.90
18126;DHT22;53956;52.442;13.284;2022-11-20T09:07:19;4.20;99.90
18126;DHT22;53956;52.442;13.284;2022-11-20T09:09:46;4.30;99.90
18126;DHT22;53956;52.442;13.284;2022-11-20T09:12:13;4.20;99.90
18126;DHT22;53956;52.442;13.284;2022-11-20T09:14:41;4.50;99.90
18126;DHT22;53956;52.442;13.284;2022-11-20T09:17:10;4.40;99.90
18126;DHT22;53956;52.442;13.284;2022-11-20T09:19:39;4.10;99.90
18126;DHT22;53956;52.442;13.284;2022-11-20T09:22:06;4.20;99.90
18126;DHT22;53956;52.442;13.284;2022-11-20T09:24:32;4.50;99.90
18126;DHT22;53956;52.442;13.284;2022-11-20T09:27:02;4.30;99.90
18126;DHT22;53956;52.442;13.284;2022-11-20T09:29:29;4.50;99.90
18126;DHT22;53956;52.442;13.284;2022-11-20T09:31:57;4.30;99.90
18126;DHT22;53956;52.442;13.284;2022-11-20T09:34:23;4.30;99.90
18126;DHT22;53956;52.442;13.284;2022-11-20T09:36:50;4.20;99.90
18126;DHT22;53956;52.442;13.284;2022-11-20T09:39:17;4.30;99.90
18126;DHT22;53956;52.442;13.284;2022-11-20T09:42:00;4.20;99.90
18126;DHT22;53956;52.442;13.284;2022-11-20T09:47:32;4.30;99.90
18126;DHT22;53956;52.442;13.284;2022-11-20T09:50:15;4.30;99.90
18126;DHT22;53956;52.442;13.284;2022-11-20T09:52:49;4.40;99.90
18126;DHT22;53956;52.442;13.284;2022-11-20T09:55:21;4.20;99.90
18126;DHT22;53956;52.442;13.284;2022-11-20T09:57:51;4.40;99.90
18126;DHT22;53956;52.442;13.284;2022-11-20T10:00:18;4.30;99.90
18126;DHT22;53956;52.442;13.284;2022-11-20T10:02:52;4.30;99.90
18126;DHT22;53956;52.442;13.284;2022-11-20T10:05:24;4.60;99.90
18126;DHT22;53956;52.442;13.284;2022-11-20T10:07:55;4.40;99.90
18126;DHT22;53956;52.442;13.284;2022-11-20T10:10:30;4.40;99.90
18126;DHT22;53956;52.442;13.284;2022-11-20T10:13:07;4.30;99.90
18126;DHT22;53956;52.442;13.284;2022-11-20T10:15:41;4.40;99.70
18126;DHT22;53956;52.442;13.284;2022-11-20T10:18:22;4.40;99.90
18126;DHT22;53956;52.442;13.284;2022-11-20T10:20:55;4.50;99.90
18126;DHT22;53956;52.442;13.284;2022-11-20T10:23:32;4.40;99.90
18126;DHT22;53956;52.442;13.284;2022-11-20T10:26:17;4.40;99.90
18126;DHT22;53956;52.442;13.284;2022-11-20T10:28:53;4.50;99.90
18126;DHT22;53956;52.442;13.284;2022-11-20T10:31:28;4.60;99.90
18126;DHT22;53956;52.442;13.284;2022-11-20T10:33:57;4.50;99.90
18126;DHT22;53956;52.442;13.284;2022-11-20T10:36:33;4.60;99.90
18126;DHT22;53956;52.442;13.284;2022-11-20T10:39:05;4.60;99.90
18126;DHT22;53956;52.442;13.284;2022-11-20T10:41:37;4.60;99.90
18126;DHT22;53956;52.442;13.284;2022-11-20T10:44:10;4.50;99.90
18126;DHT22;53956;52.442;13.284;2022-11-20T10:46:40;4.60;99.90
18126;DHT22;53956;52.442;13.284;2022-11-20T10:49:15;4.60;99.90
18126;DHT22;53956;52.442;13.284;2022-11-20T10:51:52;4.80;99.90
18126;DHT22;53956;52.442;13.284;2022-11-20T10:54:26;4.50;99.90
18126;DHT22;53956;52.442;13.284;2022-11-20T10:57:00;4.60;99.90
18126;DHT22;53956;52.442;13.284;2022-11-20T10:59:41;4.60;99.90
18126;DHT22;53956;52.442;13.284;2022-11-20T11:02:18;4.50;99.90
18126;DHT22;53956;52.442;13.284;2022-11-20T11:04:47;4.70;99.90
18126;DHT22;53956;52.442;13.284;2022-11-20T11:07:17;4.70;99.90
18126;DHT22;53956;52.442;13.284;2022-11-20T11:09:48;4.70;99.90
18126;DHT22;53956;52.442;13.284;2022-11-20T11:12:14;4.50;99.90
18126;DHT22;53956;52.442;13.284;2022-11-20T11:14:46;4.60;99.90
18126;DHT22;53956;52.442;13.284;2022-11-20T11:17:25;4.70;99.90
18126;DHT22;53956;52.442;13.284;2022-11-20T11:20:06;4.90;99.90
18126;DHT22;53956;52.442;13.284;2022-11-20T11:22:44;5.10;99.90
18126;DHT22;53956;52.442;13.284;2022-11-20T11:25:28;5.00;99.70
18126;DHT22;53956;52.442;13.284;2022-11-20T11:27:57;5.20;99.20
18126;DHT22;53956;52.442;13.284;2022-11-20T11:30:25;5.20;99.90
18126;DHT22;53956;52.442;13.284;2022-11-20T11:33:03;5.20;99.40
18126;DHT22;53956;52.442;13.284;2022-11-20T11:35:32;5.20;99.40
18126;DHT22;53956;52.442;13.284;2022-11-20T11:38:04;5.30;99.50
18126;DHT22;53956;52.442;13.284;2022-11-20T11:40:34;5.30;99.20
18126;DHT22;53956;52.442;13.284;2022-11-20T11:43:04;5.20;99.80
18126;DHT22;53956;52.442;13.284;2022-11-20T11:45:55;5.20;99.90
18126;DHT22;53956;52.442;13.284;2022-11-20T11:48:21;5.10;99.90
18126;DHT22;53956;52.442;13.284;2022-11-20T11:50:50;5.30;99.90
18126;DHT22;53956;52.442;13.284;2022-11-20T11:53:19;5.30;99.90
18126;DHT22;53956;52.442;13.284;2022-11-20T11:55:51;5.40;98.90
18126;DHT22;53956;52.442;13.284;2022-11-20T11:58:32;5.30;98.10
18126;DHT22;53956;52.442;13.284;2022-11-20T12:01:04;5.50;99.10
18126;DHT22;53956;52.442;13.284;2022-11-20T12:03:35;5.40;99.60
18126;DHT22;53956;52.442;13.284;2022-11-20T12:06:08;5.20;99.30
18126;DHT22;53956;52.442;13.284;2022-11-20T12:08:43;5.10;99.20
18126;DHT22;53956;52.442;13.284;2022-11-20T12:11:14;5.40;99.90
18126;DHT22;53956;52.442;13.284;2022-11-20T12:13:48;5.20;98.80
18126;DHT22;53956;52.442;13.284;2022-11-20T12:16:19;5.30;98.80
18126;DHT22;53956;52.442;13.284;2022-11-20T12:18:49;5.20;97.90
18126;DHT22;53956;52.442;13.284;2022-11-20T12:21:28;5.40;99.60
18126;DHT22;53956;52.442;13.284;2022-11-20T12:24:10;5.30;99.90
18126;DHT22;53956;52.442;13.284;2022-11-20T12:26:53;5.40;98.50
18126;DHT22;53956;52.442;13.284;2022-11-20T12:29:32;5.40;98.80
18126;DHT22;53956;52.442;13.284;2022-11-20T12:32:22;5.00;98.10
18126;DHT22;53956;52.442;13.284;2022-11-20T12:35:00;5.30;98.30
18126;DHT22;53956;52.442;13.284;2022-11-20T12:37:38;5.60;98.30
18126;DHT22;53956;52.442;13.284;2022-11-20T12:40:30;5.50;99.70
18126;DHT22;53956;52.442;13.284;2022-11-20T12:43:06;5.40;98.80
18126;DHT22;53956;52.442;13.284;2022-11-20T12:46:24;5.40;99.40
18126;DHT22;53956;52.442;13.284;2022-11-20T12:49:07;5.30;99.20
18126;DHT22;53956;52.442;13.284;2022-11-20T12:51:50;5.30;99.90
18126;DHT22;53956;52.442;13.284;2022-11-20T12:54:40;5.30;99.90
18126;DHT22;53956;52.442;13.284;2022-11-20T12:57:15;5.20;99.90
18126;DHT22;53956;52.442;13.284;2022-11-20T12:59:57;5.30;99.90
18126;DHT22;53956;52.442;13.284;2022-11-20T13:02:30;5.20;99.90
18126;DHT22;53956;52.442;13.284;2022-11-20T13:05:19;5.10;99.90
18126;DHT22;53956;52.442;13.284;2022-11-20T13:07:47;5.10;99.90
18126;DHT22;53956;52.442;13.284;2022-11-20T13:10:23;5.00;99.90
18126;DHT22;53956;52.442;13.284;2022-11-20T13:12:56;5.10;99.90
18126;DHT22;53956;52.442;13.284;2022-11-20T13:15:36;5.10;99.90
18126;DHT22;53956;52.442;13.284;2022-11-20T13:18:07;5.20;99.90
18126;DHT22;53956;52.442;13.284;2022-11-20T13:20:36;5.00;99.90
18126;DHT22;53956;52.442;13.284;2022-11-20T13:23:03;5.20;99.90
18126;DHT22;53956;52.442;13.284;2022-11-20T13:25:32;5.20;99.90
18126;DHT22;53956;52.442;13.284;2022-11-20T13:28:01;5.20;99.90
18126;DHT22;53956;52.442;13.284;2022-11-20T13:30:30;5.20;99.90
18126;DHT22;53956;52.442;13.284;2022-11-20T13:33:02;5.10;99.90
18126;DHT22;53956;52.442;13.284;2022-11-20T13:35:31;5.10;99.90
18126;DHT22;53956;52.442;13.284;2022-11-20T13:38:06;5.20;99.90
18126;DHT22;53956;52.442;13.284;2022-11-20T13:40:37;4.90;99.90
18126;DHT22;53956;52.442;13.284;2022-11-20T13:43:14;5.00;99.90
18126;DHT22;53956;52.442;13.284;2022-11-20T13:45:43;5.10;99.90
18126;DHT22;53956;52.442;13.284;2022-11-20T13:48:21;4.90;99.90
18126;DHT22;53956;52.442;13.284;2022-11-20T13:50:56;5.00;99.90
18126;DHT22;53956;52.442;13.284;2022-11-20T13:53:36;5.00;99.90
18126;DHT22;53956;52.442;13.284;2022-11-20T13:56:14;4.90;99.90
18126;DHT22;53956;52.442;13.284;2022-11-20T13:58:50;5.10;99.90
18126;DHT22;53956;52.442;13.284;2022-11-20T14:01:20;4.90;99.90
18126;DHT22;53956;52.442;13.284;2022-11-20T14:03:48;5.20;99.90
18126;DHT22;53956;52.442;13.284;2022-11-20T14:06:22;5.30;99.90
18126;DHT22;53956;52.442;13.284;2022-11-20T14:08:50;5.20;99.90
18126;DHT22;53956;52.442;13.284;2022-11-20T14:11:19;5.00;99.90
18126;DHT22;53956;52.442;13.284;2022-11-20T14:13:57;5.20;99.90
18126;DHT22;53956;52.442;13.284;2022-11-20T14:16:25;5.20;99.90
18126;DHT22;53956;52.442;13.284;2022-11-20T14:18:53;5.10;99.90
18126;DHT22;53956;52.442;13.284;2022-11-20T14:21:27;5.00;99.90
18126;DHT22;53956;52.442;13.284;2022-11-20T14:24:04;5.10;99.90
18126;DHT22;53956;52.442;13.284;2022-11-20T14:26:32;5.00;99.90
18126;DHT22;53956;52.442;13.284;2022-11-20T14:28:59;5.10;99.90
18126;DHT22;53956;52.442;13.284;2022-11-20T14:31:27;4.80;99.90
18126;DHT22;53956;52.442;13.284;2022-11-20T14:33:55;5.10;99.90
18126;DHT22;53956;52.442;13.284;2022-11-20T14:36:23;5.00;99.90
18126;DHT22;53956;52.442;13.284;2022-11-20T14:38:51;5.10;99.90
18126;DHT22;53956;52.442;13.284;2022-11-20T14:41:21;5.00;99.90
18126;DHT22;53956;52.442;13.284;2022-11-20T14:43:52;5.00;99.90
18126;DHT22;53956;52.442;13.284;2022-11-20T14:46:19;5.00;99.90
18126;DHT22;53956;52.442;13.284;2022-11-20T14:48:48;5.00;99.90
18126;DHT22;53956;52.442;13.284;2022-11-20T14:51:31;5.10;99.90
18126;DHT22;53956;52.442;13.284;2022-11-20T14:54:09;5.10;99.90
18126;DHT22;53956;52.442;13.284;2022-11-20T14:56:36;5.00;99.90
18126;DHT22;53956;52.442;13.284;2022-11-20T14:59:05;5.30;99.90
18126;DHT22;53956;52.442;13.284;2022-11-20T15:01:32;4.90;99.90
18126;DHT22;53956;52.442;13.284;2022-11-20T15:04:01;5.00;99.90
18126;DHT22;53956;52.442;13.284;2022-11-20T15:06:28;5.00;99.90
18126;DHT22;53956;52.442;13.284;2022-11-20T15:08:57;5.20;99.90
18126;DHT22;53956;52.442;13.284;2022-11-20T15:11:28;5.10;99.90
18126;DHT22;53956;52.442;13.284;2022-11-20T15:13:56;5.20;99.90
18126;DHT22;53956;52.442;13.284;2022-11-20T15:16:24;5.30;99.90
18126;DHT22;53956;52.442;13.284;2022-11-20T15:18:53;5.30;99.90
18126;DHT22;53956;52.442;13.284;2022-11-20T15:21:20;4.90;99.90
18126;DHT22;53956;52.442;13.284;2022-11-20T15:23:47;5.10;99.90
18126;DHT22;53956;52.442;13.284;2022-11-20T15:26:18;5.00;99.90
18126;DHT22;53956;52.442;13.284;2022-11-20T15:28:47;5.00;99.90
18126;DHT22;53956;52.442;13.284;2022-11-20T15:31:17;5.10;99.90
18126;DHT22;53956;52.442;13.284;2022-11-20T15:33:46;4.90;99.90
18126;DHT22;53956;52.442;13.284;2022-11-20T15:36:13;4.90;99.90
18126;DHT22;53956;52.442;13.284;2022-11-20T15:38:39;5.10;99.90
18126;DHT22;53956;52.442;13.284;2022-11-20T15:41:06;4.80;99.90
18126;DHT22;53956;52.442;13.284;2022-11-20T15:43:33;5.10;99.90
18126;DHT22;53956;52.442;13.284;2022-11-20T15:46:03;5.00;99.90
18126;DHT22;53956;52.442;13.284;2022-11-20T15:48:31;4.90;99.90
18126;DHT22;53956;52.442;13.284;2022-11-20T15:51:04;5.00;99.90